Accueil
METAR-TAF:

METAR-TAF

Aéroports :

Foz do Iguaçu, Paraná, Brésil

latitude: 25-31S, longitude: 054-35W, altitude: 180 m

Observation

Le bulletin a été fait il y a 15 minutes, à 02:00 UTC
Vent 6 kt de sud/sud-est
Température 24°C
Humidité 69%
Pression 1010 hPa
Visibilité 10 km ou plus
pas de nuages en-dessous de 1500 mètres et pas de cumulonimbus.

METAR: SBFI 180200Z 16006KT CAVOK 24/18 Q1010

Heure: 00:15 (02:15 UTC)

Prévision

Le bulletin a été fait il y a 4 heures et 23 minutes, à 21:52 UTC
Prévision valable du 18 à 00 UTC au 18 à 24 UTC
Vent 5 kt de est/sud-est
Visibilité 10 km ou plus
pas de nuages en-dessous de 1500 mètres et pas de cumulonimbus.
Evoluant progressivement
du 18 à 12 UTC au 18 à 14 UTC
Vent 7 kt de nord/nord-est
Evoluant progressivement
du 18 à 20 UTC au 18 à 22 UTC
Vent 5 kt de sud-est

TAF: SBFI 172152Z 1800/1824 12005KT CAVOK TN17/1809Z TX34/1818Z BECMG 1812/1814 03007KT BECMG 1820/1822 14005KT RMK PDW

Observations et prévisions météorologiques de plus de 4000 aéroports (messages METAR et TAF).

Les stations disponibles sont représentées par des disques jaunes et rouges sur la carte.

Passer la souris dessus pour voir le nom de la station.

Cliquer dessus pour voir les observations et prévisions météorologiques.

Pour changer de carte: cliquez sur les boutons verts avec une croix noire pour zoomer, sur le bouton vert avec un tiret pour effectuer un zoom arrière, ou sur les flèches vertes pour les cartes adjacentes.


METAR-TAF: